Stormwatcher's Retreat Logo




                  Temp     Hi    Low   Out    Dew  Wind  Wind   Wind    Hi    Hi   Wind   Heat    THW   THSW                Rain  Solar   Solar Hi Solar   UV    UV    Hi     Heat    Cool    In     In    In     In     In   In Air          Wind  Wind    ISS   Arc.
  Date    Time     Out   Temp   Temp   Hum    Pt. Speed   Dir    Run Speed   Dir  Chill  Index  Index  Index   Bar    Rain  Rate   Rad.  Energy    Rad.  Index  Dose   UV     D-D     D-D    Temp   Hum    Dew   Heat    EMC Density     ET   Samp   Tx   Recept  Int.
------------------------------------------------------------------------------------------------------------------------------------------------------------------------------------------------------------------------------------------------------------------------
12/15/18 12:10a   46.7   46.7   46.2    73   38.5   2.0   ESE   0.33   8.0   ESE   46.7   46.3   46.3   43.2  30.061  0.00  0.00     0     0.00      0     0.0  0.00   0.0   0.127   0.000   69.9    46   48.2   67.8   8.65  .0744    0.000   211    5    100.0   10 
12/15/18 12:20a   46.5   46.8   46.5    72   38.0   3.0    SE   0.50   9.0     E   45.8   46.1   45.4   42.3  30.058  0.00  0.00     0     0.00      0     0.0  0.00   0.0   0.128   0.000   69.8    46   48.1   67.8   8.65  .0745    0.000   211    5    100.0   10 
12/15/18 12:30a   46.0   46.5   46.0    73   37.8   3.0   ESE   0.50  10.0    SE   45.2   45.6   44.8   41.7  30.053  0.00  0.00     0     0.00      0     0.0  0.00   0.0   0.132   0.000   69.8    46   48.1   67.8   8.65  .0744    0.000   213    5    100.0   10 
12/15/18 12:40a   46.2   46.2   46.0    73   38.0   3.0    SE   0.50  10.0   ESE   45.4   45.8   45.0   41.9  30.052  0.00  0.00     0     0.00      0     0.0  0.00   0.0   0.131   0.000   69.7    46   48.0   67.7   8.65  .0745    0.000   212    5    100.0   10 
12/15/18 12:50a   46.2   46.2   46.1    73   38.0   3.0    SE   0.50  12.0   ESE   45.4   45.8   45.0   41.9  30.058  0.00  0.00     0     0.00      0     0.0  0.00   0.0   0.131   0.000   69.6    46   47.9   67.6   8.65  .0745    0.000   212    5    100.0   10 
12/15/18  1:00a   45.9   46.2   45.9    73   37.7   3.0   SSW   0.50   9.0   ESE   45.1   45.5   44.7   41.6  30.058  0.00  0.00     0     0.00      0     0.0  0.00   0.0   0.133   0.000   69.5    46   47.8   67.6   8.65  .0745    0.001   213    5    100.0   10 
12/15/18  1:10a   46.1   46.1   45.9    73   37.9   4.0     S   0.67  11.0   ESE   44.3   45.7   43.9   40.8  30.054  0.00  0.00     0     0.00      0     0.0  0.00   0.0   0.131   0.000   69.5    46   47.8   67.6   8.65  .0745    0.000   211    5    100.0   10 
12/15/18  1:20a   46.1   46.3   46.1    73   37.9   3.0     S   0.50   7.0   SSW   45.3   45.7   44.9   41.8  30.055  0.00  0.00     0     0.00      0     0.0  0.00   0.0   0.131   0.000   69.4    45   47.1   67.4   8.46  .0745    0.000   213    5    100.0   10 
12/15/18  1:30a   46.0   46.2   46.0    73   37.8   3.0   SSW   0.50   9.0    SE   45.2   45.6   44.8   41.7  30.057  0.00  0.00     0     0.00      0     0.0  0.00   0.0   0.132   0.000   69.3    45   47.0   67.3   8.46  .0746    0.000   212    5    100.0   10 
12/15/18  1:40a   46.4   46.5   46.0    73   38.2   4.0     S   0.67  14.0    SW   44.7   46.0   44.3   41.2  30.051  0.00  0.00     0     0.00      0     0.0  0.00   0.0   0.129   0.000   69.2    45   46.9   67.2   8.47  .0746    0.000   213    5    100.0   10 
12/15/18  1:50a   46.7   46.7   46.3    72   38.1   3.0   SSW   0.50   8.0   SSE   46.0   46.3   45.6   42.5  30.051  0.00  0.00     0     0.00      0     0.0  0.00   0.0   0.127   0.000   69.2    45   46.9   67.2   8.47  .0746    0.000   212    5    100.0   10 
12/15/18  2:00a   46.5   46.7   46.5    72   38.0   3.0   SSW   0.50   6.0   SSW   45.8   46.1   45.4   42.3  30.053  0.00  0.00     0     0.00      0     0.0  0.00   0.0   0.128   0.000   69.1    45   46.9   67.2   8.47  .0746    0.001   211    5    100.0   10 
12/15/18  2:10a   46.6   46.7   46.5    72   38.1   2.0     S   0.33   7.0     S   46.6   46.2   46.2   43.1  30.058  0.00  0.00     0     0.00      0     0.0  0.00   0.0   0.128   0.000   69.1    45   46.9   67.2   8.47  .0746    0.000   213    5    100.0   10 
12/15/18  2:20a   46.7   46.7   46.6    72   38.1   2.0     S   0.33   9.0   SSE   46.7   46.3   46.3   43.2  30.065  0.00  0.00     0     0.00      0     0.0  0.00   0.0   0.127   0.000   69.0    45   46.8   67.1   8.47  .0746    0.000   213    5    100.0   10 
12/15/18  2:30a   46.9   46.9   46.7    72   38.3   2.0   SSE   0.33   5.0     S   46.9   46.5   46.5   43.4  30.061  0.00  0.00     0     0.00      0     0.0  0.00   0.0   0.126   0.000   69.0    45   46.8   67.1   8.47  .0746    0.000   211    5    100.0   10 
12/15/18  2:40a   46.7   47.0   46.6    72   38.1   2.0   SSW   0.33   6.0   SSW   46.7   46.3   46.3   43.2  30.063  0.00  0.00     0     0.00      0     0.0  0.00   0.0   0.127   0.000   69.0    46   47.4   67.2   8.65  .0746    0.000   212    5    100.0   10 
12/15/18  2:50a   46.7   46.8   46.7    72   38.1   3.0   SSW   0.50   7.0   SSW   46.0   46.3   45.6   42.5  30.067  0.00  0.00     0     0.00      0     0.0  0.00   0.0   0.127   0.000   69.0    46   47.4   67.2   8.65  .0746    0.000   213    5    100.0   10 
12/15/18  3:00a   47.0   47.0   46.7    72   38.4   3.0     S   0.50   8.0   SSE   46.3   46.6   45.9   42.8  30.069  0.00  0.00     0     0.00      0     0.0  0.00   0.0   0.125   0.000   69.0    46   47.4   67.2   8.65  .0746    0.001   211    5    100.0   10 
12/15/18  3:10a   46.9   47.1   46.8    72   38.3   3.0   SSW   0.50   8.0   SSW   46.2   46.5   45.8   42.7  30.074  0.00  0.00     0     0.00      0     0.0  0.00   0.0   0.126   0.000   69.0    46   47.4   67.2   8.65  .0746    0.000   213    5    100.0   10 
12/15/18  3:20a   47.2   47.2   46.8    73   39.0   3.0     S   0.50   9.0   SSE   46.5   46.8   46.1   43.0  30.070  0.00  0.00     0     0.00      0     0.0  0.00   0.0   0.124   0.000   69.0    46   47.4   67.2   8.65  .0746    0.000   211    5    100.0   10 
12/15/18  3:30a   47.2   47.2   47.0    73   39.0   3.0   SSW   0.50   8.0   ESE   46.5   46.8   46.1   43.0  30.065  0.00  0.00     0     0.00      0     0.0  0.00   0.0   0.124   0.000   69.0    46   47.4   67.2   8.65  .0746    0.000   210    5    100.0   10 
12/15/18  3:40a   47.0   47.2   46.9    72   38.4   3.0    SE   0.50   9.0    SE   46.3   46.6   45.9   42.8  30.065  0.00  0.00     0     0.00      0     0.0  0.00   0.0   0.125   0.000   69.0    46   47.4   67.2   8.65  .0746    0.000   209    5    100.0   10 
12/15/18  3:50a   46.8   47.0   46.8    73   38.6   3.0    SE   0.50  12.0    SE   46.1   46.4   45.7   42.6  30.061  0.00  0.00     0     0.00      0     0.0  0.00   0.0   0.126   0.000   69.1    46   47.4   67.3   8.65  .0746    0.000   213    5    100.0   10 
12/15/18  4:00a   46.7   46.8   46.7    73   38.5   3.0    SE   0.50   7.0    SE   46.0   46.3   45.6   42.5  30.060  0.00  0.00     0     0.00      0     0.0  0.00   0.0   0.127   0.000   69.1    46   47.4   67.3   8.65  .0746    0.001   213    5    100.0   10 
12/15/18  4:10a   47.0   47.0   46.7    72   38.4   3.0   SSW   0.50   9.0   ESE   46.3   46.6   45.9   42.8  30.054  0.00  0.00     0     0.00      0     0.0  0.00   0.0   0.125   0.000   69.1    46   47.4   67.3   8.65  .0746    0.000   211    5    100.0   10 
12/15/18  4:20a   47.0   47.1   47.0    73   38.8   3.0   SSW   0.50  11.0   SSE   46.3   46.6   45.9   42.8  30.053  0.00  0.00     0     0.00      0     0.0  0.00   0.0   0.125   0.000   69.2    46   47.5   67.3   8.65  .0745    0.000   211    5    100.0   10 
12/15/18  4:30a   47.4   47.4   46.9    73   39.2   3.0     S   0.50   8.0   SSE   46.7   47.0   46.3   43.3  30.056  0.00  0.00     0     0.00      0     0.0  0.00   0.0   0.122   0.000   69.2    46   47.5   67.3   8.65  .0745    0.000   211    5    100.0   10 
12/15/18  4:40a   47.4   47.6   47.4    72   38.8   3.0   SSW   0.50   8.0   SSE   46.7   47.0   46.3   43.2  30.058  0.00  0.00     0     0.00      0     0.0  0.00   0.0   0.122   0.000   69.2    46   47.5   67.3   8.65  .0746    0.000   211    5    100.0   10 
12/15/18  4:50a   47.2   47.3   47.1    72   38.6   3.0    SE   0.50   9.0   ESE   46.5   46.8   46.1   43.0  30.048  0.00  0.00     0     0.00      0     0.0  0.00   0.0   0.124   0.000   69.3    46   47.6   67.4   8.65  .0745    0.000   211    5    100.0   10 
12/15/18  5:00a   46.5   47.2   46.5    72   38.0   4.0    SE   0.67  10.0     E   44.8   46.1   44.4   41.3  30.038  0.00  0.00     0     0.00      0     0.0  0.00   0.0   0.128   0.000   69.3    46   47.6   67.4   8.65  .0745    0.001   211    5    100.0   10 
12/15/18  5:10a   46.2   46.5   46.2    72   37.7   4.0    SE   0.67  12.0    SE   44.4   45.7   43.9   40.8  30.027  0.00  0.00     0     0.00      0     0.0  0.00   0.0   0.131   0.000   69.4    46   47.7   67.5   8.65  .0744    0.000   212    5    100.0   10 
12/15/18  5:20a   46.0   46.3   46.0    73   37.8   6.0   ESE   1.00  14.0   SSE   42.9   45.6   42.5   39.4  30.024  0.00  0.00     0     0.00      0     0.0  0.00   0.0   0.132   0.000   69.4    46   47.7   67.5   8.65  .0744    0.000   213    5    100.0   10 
12/15/18  5:30a   45.9   46.0   45.9    73   37.7   7.0   ESE   1.17  16.0   ESE   42.3   45.5   41.9   38.8  30.016  0.00  0.00     0     0.00      0     0.0  0.00   0.0   0.133   0.000   69.5    46   47.8   67.6   8.65  .0744    0.000   211    5    100.0   10 
12/15/18  5:40a   45.7   45.9   45.7    73   37.5   6.0   ESE   1.00  12.0    SW   42.5   45.3   42.1   39.0  30.003  0.00  0.00     0     0.00      0     0.0  0.00   0.0   0.134   0.000   69.5    46   47.8   67.6   8.65  .0744    0.000   211    5    100.0   10 
12/15/18  5:50a   45.4   45.7   45.4    73   37.2   7.0   ESE   1.17  13.0    SE   41.7   45.0   41.3   38.2  29.995  0.00  0.00     0     0.00      0     0.0  0.00   0.0   0.136   0.000   69.6    46   47.9   67.6   8.65  .0743    0.000   212    5    100.0   10 
12/15/18  6:00a   45.1   45.4   45.1    74   37.3   7.0   ESE   1.17  15.0   SSE   41.3   44.7   40.9   37.8  29.999  0.00  0.00     0     0.00      0     0.0  0.00   0.0   0.138   0.000   69.6    46   47.9   67.6   8.65  .0743    0.001   210    5    100.0   10 
12/15/18  6:10a   45.0   45.2   45.0    74   37.2   6.0   ESE   1.00  11.0    SE   41.7   44.6   41.3   38.2  29.992  0.00  0.00     0     0.00      0     0.0  0.00   0.0   0.139   0.000   69.6    46   47.9   67.6   8.65  .0743    0.000   212    5    100.0   10 
12/15/18  6:20a   44.8   45.0   44.8    74   37.0   5.0   ESE   0.83  12.0    SE   42.1   44.4   41.7   38.6  30.002  0.00  0.00     0     0.00      0     0.0  0.00   0.0   0.140   0.000   69.6    46   47.9   67.6   8.65  .0743    0.000   213    5    100.0   10 
12/15/18  6:30a   44.9   44.9   44.9    74   37.1   5.0    SE   0.83  13.0   SSE   42.2   44.5   41.8   38.7  30.002  0.00  0.00     0     0.00      0     0.0  0.00   0.0   0.140   0.000   69.5    46   47.8   67.6   8.65  .0744    0.000   212    5    100.0   10 
12/15/18  6:40a   45.0   45.0   44.9    74   37.2   6.0   ESE   1.00  13.0   ESE   41.7   44.6   41.3   38.2  30.004  0.00  0.00     0     0.00      0     0.0  0.00   0.0   0.139   0.000   69.5    46   47.8   67.6   8.65  .0744    0.000   212    5    100.0   10 
12/15/18  6:50a   44.9   45.0   44.9    74   37.1   5.0   ESE   0.83   9.0    SE   42.2   44.5   41.8   38.7  30.009  0.00  0.00     0     0.00      0     0.0  0.00   0.0   0.140   0.000   69.5    46   47.8   67.6   8.65  .0744    0.000   211    5    100.0   10 
12/15/18  7:00a   44.9   44.9   44.9    75   37.5   5.0   ESE   0.83  14.0    SE   42.2   44.5   41.8   38.7  30.007  0.00  0.00     0     0.00      0     0.0  0.00   0.0   0.140   0.000   69.4    46   47.7   67.5   8.65  .0744    0.001   212    5    100.0   10 
12/15/18  7:10a   44.9   44.9   44.9    75   37.5   6.0   ESE   1.00  12.0   SSE   41.6   44.5   41.2   38.1  30.005  0.00  0.00     0     0.00      0     0.0  0.00   0.0   0.140   0.000   69.4    46   47.7   67.5   8.65  .0744    0.000   211    5    100.0   10 
12/15/18  7:20a   44.9   44.9   44.8    75   37.5   6.0   ESE   1.00  13.0     E   41.6   44.5   41.2   38.1  29.998  0.00  0.00     0     0.00      0     0.0  0.00   0.0   0.140   0.000   69.4    46   47.7   67.5   8.65  .0744    0.000   211    5    100.0   10 
12/15/18  7:30a   44.9   44.9   44.8    75   37.5   7.0   ESE   1.17  14.0     E   41.1   44.5   40.7   37.6  29.996  0.00  0.00     0     0.00      0     0.0  0.00   0.0   0.140   0.000   69.3    46   47.6   67.4   8.65  .0744    0.000   212    5    100.0   10 
12/15/18  7:40a   45.1   45.1   44.9    75   37.6   7.0   ESE   1.17  16.0   ESE   41.3   44.7   40.9   37.8  29.995  0.00  0.00     0     0.00      0     0.0  0.00   0.0   0.138   0.000   69.3    46   47.6   67.4   8.65  .0744    0.000   212    5    100.0   10 
12/15/18  7:50a   45.1   45.1   45.0    75   37.6   8.0   ESE   1.33  16.0    SE   40.7   44.7   40.3   37.4  29.997  0.00  0.00     0     0.00      0     0.0  0.00   0.0   0.138   0.000   69.3    46   47.6   67.4   8.65  .0744    0.000   205    5     99.0   10 
12/15/18  8:00a   45.1   45.1   45.0    75   37.6   9.0   ESE   1.50  14.0     E   40.1   44.7   39.7   37.0  29.988  0.00  0.00     3     0.04      5     0.0  0.00   0.0   0.138   0.000   69.2    45   46.9   67.2   8.47  .0744    0.001   212    5    100.0   10 
12/15/18  8:10a   45.1   45.1   45.0    75   37.6   7.0   ESE   1.17  16.0   ESE   41.3   44.7   40.9   38.0  29.986  0.00  0.00     9     0.13     14     0.0  0.00   0.0   0.138   0.000   69.2    45   46.9   67.2   8.47  .0744    0.000   212    5    100.0   10 
12/15/18  8:20a   45.3   45.3   45.1    74   37.5   9.0   ESE   1.50  19.0   ESE   40.4   44.9   40.0   37.7  29.984  0.00  0.00    27     0.39     33     0.0  0.00   0.0   0.137   0.000   69.2    45   46.9   67.2   8.47  .0744    0.000   212    5    100.0   10 
12/15/18  8:30a   45.3   45.4   45.2    74   37.5   9.0   ESE   1.50  16.0   ESE   40.4   44.9   40.0   37.9  29.983  0.00  0.00    33     0.47     35     0.0  0.00   0.0   0.137   0.000   69.1    45   46.9   67.2   8.47  .0744    0.000   213    5    100.0   10 
12/15/18  8:40a   45.4   45.4   45.3    74   37.6   9.0   ESE   1.50  18.0   ESE   40.5   45.0   40.1   38.6  29.988  0.00  0.00    64     0.92     83     0.0  0.00   0.0   0.136   0.000   69.1    45   46.9   67.2   8.47  .0744    0.000   210    5    100.0   10 
12/15/18  8:50a   45.6   45.6   45.4    74   37.8   8.0   ESE   1.33  17.0   ESE   41.3   45.2   40.9   40.0  29.984  0.00  0.00    92     1.32     95     0.0  0.00   0.0   0.135   0.000   69.1    45   46.9   67.2   8.47  .0744    0.000   210    5    100.0   10 
12/15/18  9:00a   45.7   45.7   45.6    74   37.9   7.0   ESE   1.17  13.0   ESE   42.0   45.3   41.6   40.8  29.972  0.00  0.00    98     1.40    105     0.0  0.00   0.0   0.134   0.000   69.0    45   46.8   67.1   8.47  .0744    0.002   213    5    100.0   10 
12/15/18  9:10a   46.0   46.0   45.7    74   38.2   8.0   ESE   1.33  18.0   SSE   41.8   45.6   41.4   43.1  29.965  0.00  0.00   113     1.62    139     0.0  0.00   0.0   0.132   0.000   69.0    45   46.8   67.1   8.47  .0744    0.000   212    5    100.0   10 
12/15/18  9:20a   46.6   46.6   46.0    73   38.4   8.0   ESE   1.33  16.0     E   42.5   46.2   42.1   45.5  29.967  0.00  0.00   163     2.34    236     0.0  0.00   0.0   0.128   0.000   68.9    45   46.7   67.0   8.47  .0744    0.000   212    5    100.0   10 
12/15/18  9:30a   46.9   46.9   46.6    72   38.3   7.0    SE   1.17  14.0   ESE   43.5   46.5   43.1   45.3  29.959  0.00  0.00   108     1.55    135     0.0  0.00   0.0   0.126   0.000   68.8    45   46.6   66.9   8.47  .0744    0.000   212    5    100.0   10 
12/15/18  9:40a   47.2   47.2   46.9    72   38.6   7.0   ESE   1.17  15.0   ENE   43.8   46.8   43.4   45.5  29.954  0.00  0.00   104     1.49    109     0.0  0.00   0.0   0.124   0.000   68.7    45   46.5   66.8   8.48  .0744    0.000   213    5    100.0   10 
12/15/18  9:50a   47.6   47.6   47.2    71   38.7   6.0    SE   1.00  13.0     E   44.8   47.1   44.3   46.9  29.959  0.00  0.00   118     1.69    128     0.0  0.00   0.0   0.121   0.000   68.6    45   46.4   66.7   8.48  .0744    0.000   212    5    100.0   10 
12/15/18 10:00a   47.9   47.9   47.6    70   38.6   7.0   ESE   1.17  16.0     E   44.7   47.4   44.2   47.1  29.963  0.00  0.00   128     1.83    141     0.0  0.00   0.0   0.119   0.000   68.6    45   46.4   66.7   8.48  .0744    0.003   211    5    100.0   10 
12/15/18 10:10a   48.1   48.1   47.9    70   38.8   8.0   ESE   1.33  16.0   ESE   44.2   47.6   43.7   45.3  29.953  0.00  0.00    97     1.39    116     0.0  0.00   0.0   0.117   0.000   68.4    45   46.2   66.6   8.48  .0744    0.000   210    5    100.0   10 
12/15/18 10:20a   48.2   48.2   48.1    68   38.1   9.0   ESE   1.50  21.0   ESE   43.7   47.6   43.1   44.1  29.940  0.00  0.00    83     1.19     84     0.0  0.00   0.0   0.117   0.000   68.4    45   46.2   66.6   8.48  .0744    0.000   212    5    100.0   10 
12/15/18 10:30a   48.3   48.3   48.2    68   38.2   9.0   ESE   1.50  16.0    SE   43.9   47.7   43.3   45.2  29.929  0.00  0.00   110     1.58    142     0.0  0.00   0.0   0.116   0.000   68.3    45   46.1   66.5   8.48  .0744    0.000   210    5    100.0   10 
12/15/18 10:40a   48.7   48.8   48.3    67   38.2  10.0   ESE   1.67  16.0    SE   43.8   48.2   43.3   47.9  29.916  0.00  0.00   205     2.94    232     0.0  0.00   0.0   0.113   0.000   68.3    45   46.1   66.5   8.48  .0744    0.000   212    5    100.0   10 
12/15/18 10:50a   49.0   49.0   48.7    66   38.1   9.0   ESE   1.50  16.0   ENE   44.7   48.4   44.1   47.9  29.918  0.00  0.00   174     2.49    193     0.0  0.00   0.0   0.111   0.000   68.4    45   46.2   66.6   8.48  .0744    0.000   213    5    100.0   10 
12/15/18 11:00a   49.1   49.1   49.0    66   38.2   9.0   ESE   1.50  16.0   ESE   44.8   48.5   44.2   47.0  29.905  0.00  0.00   143     2.05    156     0.0  0.00   0.0   0.110   0.000   68.3    45   46.1   66.5   8.48  .0743    0.004   212    5    100.0   10 
12/15/18 11:10a   49.5   49.5   49.1    65   38.2  10.0   ESE   1.67  17.0   ESE   44.7   48.9   44.1   48.9  29.895  0.00  0.00   220     3.15    301     0.0  0.00   0.0   0.108   0.000   68.4    45   46.2   66.6   8.48  .0743    0.000   210    5    100.0   10 
12/15/18 11:20a   50.5   50.5   49.5    64   38.8  10.0   ESE   1.67  18.0   ESE   45.9   49.8   45.2   51.7  29.881  0.00  0.00   300     4.30    355     0.0  0.00   0.0   0.101   0.000   68.4    45   46.2   66.6   8.48  .0743    0.000   213    5    100.0   10 
12/15/18 11:30a   50.4   50.5   50.3    62   37.9   9.0   ESE   1.50  17.0   ENE   46.4   49.6   45.6   49.6  29.887  0.00  0.00   187     2.68    216     0.0  0.00   0.0   0.101   0.000   68.4    45   46.2   66.6   8.48  .0743    0.000   213    5    100.0   10 
12/15/18 11:40a   50.6   50.6   50.4    59   36.8   8.0   ESE   1.33  16.0     E   47.2   49.7   46.3   50.9  29.869  0.00  0.00   208     2.98    279     0.0  0.00   0.0   0.100   0.000   68.4    45   46.2   66.6   8.48  .0742    0.000   213    5    100.0   10 
12/15/18 11:50a   50.7   50.7   50.6    58   36.5   8.0   ESE   1.33  17.0    SE   47.3   49.8   46.4   49.2  29.876  0.00  0.00   149     2.14    158     0.0  0.00   0.0   0.099   0.000   68.4    45   46.2   66.6   8.48  .0742    0.000   211    5    100.0   10 
12/15/18 12:00p   50.9   50.9   50.7    57   36.2   7.0   ESE   1.17  15.0   ESE   48.3   49.9   47.3   49.5  29.880  0.00  0.00   125     1.79    141     0.0  0.00   0.0   0.098   0.000   68.4    45   46.2   66.6   8.48  .0743    0.006   213    5    100.0   10 
12/15/18 12:10p   51.1   51.1   50.9    55   35.5   7.0   ESE   1.17  14.0    SE   48.5   50.0   47.4   49.3  29.865  0.00  0.00   118     1.69    135     0.0  0.00   0.0   0.097   0.000   68.4    45   46.2   66.6   8.48  .0742    0.000   212    5    100.0   10 
12/15/18 12:20p   51.4   51.4   51.1    52   34.3   7.0   ESE   1.17  15.0   SSE   48.9   50.1   47.6   50.1  29.873  0.00  0.00   135     1.94    148     0.0  0.00   0.0   0.094   0.000   68.4    45   46.2   66.6   8.48  .0742    0.000   212    5    100.0   10 
12/15/18 12:30p   51.7   51.7   51.4    50   33.6   7.0   ESE   1.17  14.0   ENE   49.2   50.3   47.8   50.2  29.861  0.00  0.00   135     1.94    142     0.0  0.00   0.0   0.092   0.000   68.4    45   46.2   66.6   8.48  .0742    0.000   211    5    100.0   10 
12/15/18 12:40p   51.9   52.0   51.7    48   32.8   7.0   ESE   1.17  16.0    SE   49.5   50.3   47.9   49.9  29.862  0.00  0.00   122     1.75    128     0.0  0.00   0.0   0.091   0.000   68.5    45   46.3   66.6   8.48  .0742    0.000   211    5    100.0   10 
12/15/18 12:50p   51.9   52.0   51.9    48   32.8   6.0    SE   1.00  18.0    SE   49.9   50.3   48.3   49.2  29.852  0.00  0.00    91     1.30    105     0.0  0.00   0.0   0.091   0.000   68.5    45   46.3   66.6   8.48  .0742    0.000   211    5    100.0   10 
12/15/18  1:00p   51.8   51.9   51.7    48   32.7   6.0   ESE   1.00  16.0    SE   49.8   50.3   48.3   48.4  29.854  0.00  0.00    69     0.99     72     0.0  0.00   0.0   0.092   0.000   68.5    45   46.3   66.6   8.48  .0742    0.004   212    5    100.0   10 
12/15/18  1:10p   51.8   51.8   51.7    48   32.7   7.0   ESE   1.17  14.0    SE   49.4   50.3   47.9   48.4  29.853  0.00  0.00    80     1.15     88     0.0  0.00   0.0   0.092   0.000   68.5    45   46.3   66.6   8.48  .0742    0.000   214    5    100.0   10 
12/15/18  1:20p   51.8   51.8   51.7    47   32.2   6.0    SE   1.00  13.0   ESE   49.8   50.2   48.2   49.0  29.842  0.00  0.00    86     1.23     91     0.0  0.00   0.0   0.092   0.000   68.5    45   46.3   66.6   8.48  .0741    0.000   211    5    100.0   10 
12/15/18  1:30p   51.7   51.8   51.7    48   32.6   6.0    SE   1.00  14.0     E   49.7   50.2   48.2   47.7  29.843  0.00  0.00    54     0.77     65     0.0  0.00   0.0   0.092   0.000   68.5    45   46.3   66.6   8.48  .0741    0.000   212    5    100.0   10 
12/15/18  1:40p   51.7   51.7   51.7    48   32.6   5.0   ESE   0.83  12.0    SE   50.2   50.2   48.7   48.5  29.848  0.00  0.00    61     0.87     65     0.0  0.00   0.0   0.092   0.000   68.5    45   46.3   66.6   8.48  .0742    0.000   211    5    100.0   10 
12/15/18  1:50p   51.9   51.9   51.7    47   32.3   5.0   ESE   0.83  11.0   ESE   50.5   50.3   48.9   48.0  29.849  0.00  0.00    41     0.59     51     0.0  0.00   0.0   0.091   0.000   68.5    45   46.3   66.6   8.48  .0742    0.000   212    5    100.0   10 
12/15/18  2:00p   51.9   51.9   51.8    46   31.7   5.0   ESE   0.83  13.0   ESE   50.5   50.3   48.9   47.4  29.849  0.00  0.00    27     0.39     32     0.0  0.00   0.0   0.091   0.000   68.5    45   46.3   66.6   8.48  .0742    0.003   212    5    100.0   10 
12/15/18  2:10p   52.0   52.0   51.8    46   31.8   5.0   SSW   0.83  12.0   SSE   50.6   50.3   48.9   48.3  29.848  0.00  0.00    48     0.69     62     0.0  0.00   0.0   0.090   0.000   68.5    45   46.3   66.6   8.48  .0742    0.000   211    5    100.0   10 
12/15/18  2:20p   52.7   52.7   51.9    41   29.6   4.0     S   0.67  15.0     S   52.0   50.7   50.0   49.6  29.844  0.00  0.00    53     0.76     62     0.0  0.00   0.0   0.085   0.000   68.5    45   46.3   66.6   8.48  .0742    0.000   213    5    100.0   10 
12/15/18  2:30p   53.2   53.2   52.8    42   30.7   4.0     S   0.67   9.0     S   52.5   51.2   50.5   49.9  29.842  0.00  0.00    47     0.67     49     0.0  0.00   0.0   0.082   0.000   68.5    45   46.3   66.6   8.48  .0741    0.000   211    5    100.0   10 
12/15/18  2:40p   53.2   53.2   53.1    42   30.7   4.0    SE   0.67  12.0    SE   52.5   51.2   50.5   49.3  29.834  0.00  0.00    34     0.49     39     0.0  0.00   0.0   0.082   0.000   68.5    45   46.3   66.6   8.48  .0741    0.000   211    5    100.0   10 
12/15/18  2:50p   53.1   53.2   53.1    43   31.2   5.0    SE   0.83  13.0   ESE   51.8   51.2   49.9   48.4  29.831  0.00  0.00    26     0.37     28     0.0  0.00   0.0   0.083   0.000   68.5    45   46.3   66.6   8.48  .0741    0.000   212    5    100.0   10 
12/15/18  3:00p   52.8   53.1   52.8    44   31.5   4.0   ESE   0.67  10.0   ESE   52.1   51.0   50.3   48.6  29.830  0.00  0.00    20     0.29     28     0.0  0.00   0.0   0.085   0.000   68.5    45   46.3   66.6   8.48  .0741    0.003   211    5    100.0   10 
12/15/18  3:10p   52.6   52.8   52.6    45   31.8   5.0    SE   0.83  12.0    SE   51.3   50.8   49.5   47.7  29.820  0.00  0.00    18     0.26     19     0.0  0.00   0.0   0.086   0.000   68.5    45   46.3   66.6   8.48  .0741    0.000   213    5    100.0   10 
12/15/18  3:20p   52.5   52.6   52.5    46   32.3   5.0    SE   0.83  11.0   ESE   51.2   50.8   49.5   47.6  29.827  0.00  0.00    14     0.20     14     0.0  0.00   0.0   0.087   0.000   68.5    45   46.3   66.6   8.48  .0741    0.000   212    5    100.0   10 
12/15/18  3:30p   52.7   52.7   52.5    47   33.0   4.0   ESE   0.67  12.0   ENE   52.0   51.0   50.3   48.5  29.826  0.00  0.00    16     0.23     18     0.0  0.00   0.0   0.085   0.000   68.5    45   46.3   66.6   8.48  .0741    0.000   214    5    100.0   10 
12/15/18  3:40p   52.9   52.9   52.7    47   33.2   5.0   ESE   0.83  13.0    SE   51.6   51.2   49.9   48.0  29.819  0.00  0.00    13     0.19     14     0.0  0.00   0.0   0.084   0.000   68.5    45   46.3   66.6   8.48  .0741    0.000   208    5    100.0   10 
12/15/18  3:50p   52.8   53.0   52.8    48   33.6   5.0    SE   0.83  12.0   SSE   51.5   51.1   49.8   47.0  29.818  0.00  0.00     9     0.13     11     0.0  0.00   0.0   0.085   0.000   68.5    45   46.3   66.6   8.48  .0741    0.000   211    5    100.0   10 
12/15/18  4:00p   52.6   52.8   52.6    49   34.0   5.0   ESE   0.83  11.0   ESE   51.3   51.0   49.7   46.8  29.817  0.00  0.00     6     0.09      7     0.0  0.00   0.0   0.086   0.000   68.5    45   46.3   66.6   8.48  .0741    0.002   212    5    100.0   10 
12/15/18  4:10p   52.8   52.9   52.6    51   35.2   5.0    SE   0.83  14.0   ESE   51.5   51.3   50.0   47.0  29.819  0.00  0.00     1     0.01      5     0.0  0.00   0.0   0.085   0.000   68.5    45   46.3   66.6   8.48  .0741    0.000   211    5    100.0   10 
12/15/18  4:20p   51.2   52.7   51.2    57   36.5   6.0   ESE   1.00  13.0   ESE   49.1   50.2   48.1   45.1  29.816  0.00  0.00     0     0.00      0     0.0  0.00   0.0   0.096   0.000   68.5    45   46.3   66.6   8.48  .0741    0.000   211    5    100.0   10 
12/15/18  4:30p   49.9   51.2   49.9    61   37.0   6.0   ESE   1.00  16.0     E   47.6   49.1   46.8   43.8  29.812  0.00  0.00     0     0.00      0     0.0  0.00   0.0   0.105   0.000   68.5    45   46.3   66.6   8.48  .0741    0.000   213    5    100.0   10 
12/15/18  4:40p   50.0   50.0   49.8    62   37.5   8.0   ESE   1.33  16.0    SE   46.5   49.3   45.8   43.0  29.801  0.00  0.00     0     0.00      0     0.0  0.00   0.0   0.104   0.000   68.5    45   46.3   66.6   8.48  .0740    0.000   213    5    100.0   10 
12/15/18  4:50p   49.7   50.0   49.7    62   37.2   7.0   ESE   1.17  13.0   ESE   46.8   49.0   46.1   43.2  29.801  0.00  0.00     0     0.00      0     0.0  0.00   0.0   0.106   0.000   68.5    45   46.3   66.6   8.48  .0740    0.000   212    5    100.0   10 
12/15/18  5:00p   49.4   49.7   49.4    63   37.3   7.0   ESE   1.17  13.0   ESE   46.5   48.7   45.8   42.9  29.802  0.00  0.00     0     0.00      0     0.0  0.00   0.0   0.108   0.000   68.5    45   46.3   66.6   8.48  .0740    0.002   213    5    100.0   10 
12/15/18  5:10p   49.6   49.6   49.4    62   37.1   7.0    SE   1.17  17.0    SE   46.7   48.9   46.0   43.1  29.801  0.00  0.00     0     0.00      0     0.0  0.00   0.0   0.107   0.000   68.5    45   46.3   66.6   8.48  .0740    0.000   209    5    100.0   10 
12/15/18  5:20p   49.9   49.9   49.6    62   37.4   7.0   ESE   1.17  17.0     W   47.1   49.2   46.4   43.5  29.803  0.00  0.00     0     0.00      0     0.0  0.00   0.0   0.105   0.000   68.5    45   46.3   66.6   8.48  .0740    0.000   211    5    100.0   10 
12/15/18  5:30p   50.3   50.3   49.9    61   37.4   7.0   ESE   1.17  13.0   ESE   47.6   49.5   46.8   43.9  29.798  0.00  0.00     0     0.00      0     0.0  0.00   0.0   0.102   0.000   68.5    45   46.3   66.6   8.48  .0740    0.000   213    5    100.0   10 
12/15/18  5:40p   50.7   50.7   50.3    61   37.7   6.0   ESE   1.00  15.0    SE   48.5   49.9   47.7   44.8  29.791  0.00  0.00     0     0.00      0     0.0  0.00   0.0   0.099   0.000   68.5    45   46.3   66.6   8.48  .0740    0.000   213    5    100.0   10 
12/15/18  5:50p   50.4   50.7   50.4    61   37.4   6.0    SE   1.00  13.0   ESE   48.2   49.6   47.4   44.5  29.786  0.00  0.00     0     0.00      0     0.0  0.00   0.0   0.101   0.000   68.5    45   46.3   66.6   8.48  .0740    0.000   209    5    100.0   10 
12/15/18  6:00p   50.6   50.6   50.4    61   37.6   7.0   ESE   1.17  16.0     E   47.9   49.8   47.1   44.2  29.784  0.00  0.00     0     0.00      0     0.0  0.00   0.0   0.100   0.000   68.5    45   46.3   66.6   8.48  .0740    0.002   214    5    100.0   10 
12/15/18  6:10p   50.8   50.8   50.6    60   37.4   7.0   ESE   1.17  14.0     E   48.2   49.9   47.3   44.4  29.789  0.00  0.00     0     0.00      0     0.0  0.00   0.0   0.099   0.000   68.5    45   46.3   66.6   8.48  .0740    0.000   210    5    100.0   10 
12/15/18  6:20p   51.4   51.4   50.9    58   37.1   6.0   ESE   1.00  13.0   SSE   49.3   50.4   48.3   45.4  29.785  0.00  0.00     0     0.00      0     0.0  0.00   0.0   0.094   0.000   68.5    45   46.3   66.6   8.48  .0740    0.000   211    5    100.0   10 
12/15/18  6:30p   52.1   52.1   51.4    56   36.9   6.0    SE   1.00  12.0    SE   50.1   50.9   48.9   45.9  29.780  0.00  0.00     0     0.00      0     0.0  0.00   0.0   0.090   0.000   68.5    45   46.3   66.6   8.48  .0740    0.000   213    5    100.0   10 
12/15/18  6:40p   52.0   52.1   52.0    56   36.8   7.0    SE   1.17  14.0   ESE   49.6   50.8   48.4   45.4  29.783  0.00  0.00     0     0.00      0     0.0  0.00   0.0   0.090   0.000   68.5    45   46.3   66.6   8.48  .0740    0.000   211    5    100.0   10 
12/15/18  6:50p   51.8   52.1   51.8    57   37.0   7.0   ESE   1.17  13.0   ESE   49.4   50.7   48.3   45.4  29.783  0.00  0.00     0     0.00      0     0.0  0.00   0.0   0.092   0.000   68.5    45   46.3   66.6   8.48  .0740    0.000   211    5    100.0   10 
12/15/18  7:00p   51.1   51.8   51.1    60   37.7   6.0   ESE   1.00  12.0     E   49.0   50.2   48.1   45.2  29.777  0.01  0.00     0     0.00      0     0.0  0.00   0.0   0.097   0.000   68.5    45   46.3   66.6   8.48  .0740    0.002   212    5    100.0   10 
12/15/18  7:10p   50.8   51.1   50.8    62   38.2   4.0     S   0.67  10.0     S   49.8   50.0   49.0   46.1  29.781  0.00  0.00     0     0.00      0     0.0  0.00   0.0   0.099   0.000   68.5    45   46.3   66.6   8.48  .0740    0.000   211    5    100.0   10 
12/15/18  7:20p   51.8   51.8   50.8    59   37.9   5.0   ESE   0.83  14.0   ESE   50.4   50.8   49.4   46.5  29.777  0.00  0.00     0     0.00      0     0.0  0.00   0.0   0.092   0.000   68.6    45   46.4   66.7   8.48  .0740    0.000   212    5    100.0   10 
12/15/18  7:30p   52.3   52.3   51.8    60   38.8   5.0   ESE   0.83  12.0   SSE   50.9   51.3   49.9   47.0  29.781  0.00  0.00     0     0.00      0     0.0  0.00   0.0   0.088   0.000   68.6    45   46.4   66.7   8.48  .0740    0.000   213    5    100.0   10 
12/15/18  7:40p   52.7   52.7   52.3    59   38.8   5.0   ESE   0.83  12.0    SE   51.4   51.6   50.3   47.4  29.777  0.00  0.00     0     0.00      0     0.0  0.00   0.0   0.085   0.000   68.5    45   46.3   66.6   8.48  .0740    0.000   212    5    100.0   10 
12/15/18  7:50p   52.6   52.7   52.6    60   39.1   4.0    SE   0.67  10.0   SSW   51.9   51.5   50.8   47.9  29.774  0.00  0.00     0     0.00      0     0.0  0.00   0.0   0.086   0.000   68.5    45   46.3   66.6   8.48  .0740    0.000   210    5    100.0   10 
12/15/18  8:00p   54.0   54.0   52.6    64   42.1   5.0     S   0.83  12.0     S   52.9   53.0   51.9   49.1  29.777  0.00  0.00     0     0.00      0     0.0  0.00   0.0   0.076   0.000   68.5    45   46.3   66.6   8.48  .0740    0.002   212    5    100.0   10 
12/15/18  8:10p   54.4   54.4   53.9    64   42.5   6.0     S   1.00  16.0    SE   52.9   53.4   51.9   49.1  29.769  0.00  0.00     0     0.00      0     0.0  0.00   0.0   0.074   0.000   68.5    45   46.3   66.6   8.48  .0740    0.000   211    5    100.0   10 
12/15/18  8:20p   55.3   55.3   54.4    64   43.3   6.0     S   1.00  24.0   SSW   54.0   54.2   52.9   50.2  29.779  0.00  0.00     0     0.00      0     0.0  0.00   0.0   0.067   0.000   68.5    45   46.3   66.6   8.48  .0740    0.000   213    5    100.0   10 
12/15/18  8:30p   54.1   55.4   54.1    62   41.4   6.0     S   1.00  14.0     S   52.5   53.0   51.4   48.6  29.772  0.00  0.00     0     0.00      0     0.0  0.00   0.0   0.076   0.000   68.4    45   46.2   66.6   8.48  .0740    0.000   213    5    100.0   10 
12/15/18  8:40p   53.2   54.1   53.2    64   41.3   7.0    SE   1.17  15.0   ESE   51.0   52.2   50.0   47.2  29.772  0.00  0.00     0     0.00      0     0.0  0.00   0.0   0.082   0.000   68.4    45   46.2   66.6   8.48  .0740    0.000   210    5    100.0   10 
12/15/18  8:50p   53.7   53.7   53.1    68   43.4   6.0   SSW   1.00  23.0    SE   52.0   52.9   51.2   48.5  29.770  0.00  0.00     0     0.00      0     0.0  0.00   0.0   0.078   0.000   68.4    45   46.2   66.6   8.48  .0740    0.000   213    5    100.0   10 
12/15/18  9:00p   55.5   55.5   53.8    68   45.1   8.0     S   1.33  18.0     S   53.1   54.6   52.2   49.7  29.774  0.00  0.00     0     0.00      0     0.0  0.00   0.0   0.066   0.000   68.4    45   46.2   66.6   8.48  .0740    0.002   210    5    100.0   10 
12/15/18  9:10p   56.6   56.6   55.5    67   45.8  12.0     S   2.00  30.0   SSW   51.9   55.7   51.0   48.9  29.768  0.00  0.00     0     0.00      0     0.0  0.00   0.0   0.058   0.000   68.4    45   46.2   66.6   8.48  .0740    0.000   210    5    100.0   10 
12/15/18  9:20p   57.0   57.0   56.6    67   46.1  12.0   SSW   2.00  24.0   SSE   52.3   56.1   51.4   49.3  29.766  0.00  0.00     0     0.00      0     0.0  0.00   0.0   0.056   0.000   68.4    45   46.2   66.6   8.48  .0740    0.000   213    5    100.0   10 
12/15/18  9:30p   57.3   57.3   57.0    67   46.4  12.0   SSW   2.00  23.0     S   52.7   56.4   51.8   49.7  29.755  0.00  0.00     0     0.00      0     0.0  0.00   0.0   0.053   0.000   68.4    45   46.2   66.6   8.48  .0739    0.000   214    5    100.0   10 
12/15/18  9:40p   57.6   57.6   57.3    67   46.7  11.0   SSW   1.83  31.0     S   53.6   56.7   52.7   50.5  29.751  0.00  0.00     0     0.00      0     0.0  0.00   0.0   0.051   0.000   68.4    46   46.8   66.7   8.65  .0739    0.000   213    5    100.0   10 
12/15/18  9:50p   58.3   58.3   57.5    65   46.6  12.0   SSW   2.00  26.0     S   53.8   57.3   52.8   50.7  29.740  0.00  0.00     0     0.00      0     0.0  0.00   0.0   0.047   0.000   68.4    46   46.8   66.7   8.65  .0739    0.000   211    5    100.0   10 
12/15/18 10:00p   58.3   58.3   58.2    65   46.6  11.0     S   1.83  28.0     S   54.4   57.3   53.4   51.2  29.727  0.00  0.00     0     0.00      0     0.0  0.00   0.0   0.047   0.000   68.4    46   46.8   66.7   8.65  .0739    0.003   213    5    100.0   10 
12/15/18 10:10p   58.9   59.0   58.2    64   46.7  13.0     S   2.17  29.0     S   54.0   57.8   52.9   50.8  29.726  0.01  0.00     0     0.00      0     0.0  0.00   0.0   0.042   0.000   68.5    46   46.9   66.8   8.65  .0738    0.000   213    5    100.0   10 
12/15/18 10:20p   59.3   59.3   58.7    63   46.7  13.0     S   2.17  31.0     S   54.5   58.2   53.4   51.3  29.725  0.00  0.00     0     0.00      0     0.0  0.00   0.0   0.040   0.000   68.5    46   46.9   66.8   8.65  .0738    0.000   212    5    100.0   10 
12/15/18 10:30p   59.3   59.4   59.3    63   46.7  12.0     S   2.00  25.0     S   55.0   58.2   53.9   51.8  29.734  0.00  0.00     0     0.00      0     0.0  0.00   0.0   0.040   0.000   68.4    46   46.8   66.7   8.65  .0739    0.000   213    5    100.0   10 
12/15/18 10:40p   58.6   59.3   58.6    63   46.0   7.0   SSW   1.17  14.0    SE   57.5   57.5   56.4   53.8  29.734  0.00  0.00     0     0.00      0     0.0  0.00   0.0   0.044   0.000   68.5    46   46.9   66.8   8.65  .0739    0.000   212    5    100.0   10 
12/15/18 10:50p   58.6   58.7   58.2    63   46.0   9.0   SSW   1.50  26.0     S   56.0   57.5   54.9   52.5  29.725  0.00  0.00     0     0.00      0     0.0  0.00   0.0   0.044   0.000   68.4    46   46.8   66.7   8.65  .0739    0.000   214    5    100.0   10 
12/15/18 11:00p   59.3   59.4   58.7    63   46.7  12.0     S   2.00  29.0   ESE   55.0   58.2   53.9   51.8  29.724  0.00  0.00     0     0.00      0     0.0  0.00   0.0   0.040   0.000   68.4    46   46.8   66.7   8.65  .0738    0.003   211    5    100.0   10 
12/15/18 11:10p   59.5   59.6   59.2    63   46.9  12.0     S   2.00  31.0     S   55.2   58.4   54.1   52.0  29.729  0.00  0.00     0     0.00      0     0.0  0.00   0.0   0.038   0.000   68.4    46   46.8   66.7   8.65  .0739    0.000   212    5    100.0   10 
12/15/18 11:20p   59.7   59.7   59.5    63   47.1  13.0   SSW   2.17  32.0   SSE   54.9   58.6   53.8   51.7  29.736  0.00  0.00     0     0.00      0     0.0  0.00   0.0   0.037   0.000   68.4    46   46.8   66.7   8.65  .0739    0.000   212    5    100.0   10 
12/15/18 11:30p   59.5   59.7   59.5    63   46.9  14.0   SSW   2.33  27.0    SW   54.4   58.4   53.3   51.3  29.728  0.00  0.00     0     0.00      0     0.0  0.00   0.0   0.038   0.000   68.4    46   46.8   66.7   8.65  .0739    0.000   213    5    100.0   10 
12/15/18 11:40p   59.3   59.6   59.3    65   47.5  12.0     S   2.00  26.0   SSW   55.0   58.3   54.0   51.9  29.733  0.00  0.00     0     0.00      0     0.0  0.00   0.0   0.040   0.000   68.4    46   46.8   66.7   8.65  .0739    0.000   212    5    100.0   10 
12/15/18 11:50p   58.7   59.3   58.7    67   47.8  11.0   SSW   1.83  21.0     S   54.8   57.8   53.9   51.7  29.732  0.00  0.00     0     0.00      0     0.0  0.00   0.0   0.044   0.000   68.3    46   46.7   66.6   8.65  .0739    0.000   212    5    100.0   10 
12/16/18 12:00a   58.6   58.8   58.5    67   47.7  11.0   SSW   1.83  29.0   SSE   54.7   57.7   53.8   51.6  29.721  0.00  0.00     0     0.00      0     0.0  0.00   0.0   0.044   0.000   68.3    46   46.7   66.6   8.65  .0739    0.004   211    5    100.0   10 
12/16/18 12:10a   58.5   58.6   58.4    68   48.0  12.0     S   2.00  27.0     S   54.1   57.7   53.3   51.2  29.714  0.00  0.00     0     0.00      0     0.0  0.00   0.0   0.045   0.000   68.3    46   46.7   66.6   8.65  .0738    0.000   211    5    100.0   10 
12/16/18 12:20a   58.5   58.6   58.5    68   48.0  15.0   SSW   2.50  29.0     S   52.9   57.7   52.1   50.2  29.709  0.00  0.00     0     0.00      0     0.0  0.00   0.0   0.045   0.000   68.3    46   46.7   66.6   8.65  .0738    0.000   214    5    100.0   10 
12/16/18 12:30a   58.5   58.6   58.5    69   48.4  13.0   SSW   2.17  30.0   SSW   53.6   57.7   52.8   50.8  29.713  0.00  0.00     0     0.00      0     0.0  0.00   0.0   0.045   0.000   68.3    46   46.7   66.6   8.65  .0738    0.000   213    5    100.0   10 
12/16/18 12:40a   58.5   58.5   58.4    70   48.7  11.0   SSW   1.83  31.0   SSW   54.6   57.8   53.9   51.8  29.706  0.00  0.00     0     0.00      0     0.0  0.00   0.0   0.045   0.000   68.3    46   46.7   66.6   8.65  .0738    0.000   212    5    100.0   10 
12/16/18 12:50a   58.2   58.5   58.1    70   48.5   7.0     S   1.17  19.0     S   57.0   57.4   56.2   53.7  29.697  0.00  0.00     0     0.00      0     0.0  0.00   0.0   0.047   0.000   68.3    46   46.7   66.6   8.65  .0738    0.000   211    5    100.0   10 
12/16/18  1:00a   57.7   58.1   57.7    71   48.4   6.0     S   1.00  17.0   SSE   56.8   57.0   56.1   53.6  29.685  0.00  0.00     0     0.00      0     0.0  0.00   0.0   0.051   0.000   68.2    46   46.6   66.5   8.65  .0738    0.003   211    5    100.0   10 
12/16/18  1:10a   57.3   57.7   57.3    71   48.0   6.0   SSW   1.00  19.0    SE   56.4   56.6   55.7   53.1  29.689  0.00  0.00     0     0.00      0     0.0  0.00   0.0   0.053   0.000   68.3    46   46.7   66.6   8.65  .0738    0.000   211    5    100.0   10 
12/16/18  1:20a   57.3   57.3   57.1    71   48.0   5.0     S   0.83  13.0     E   56.8   56.6   56.1   53.5  29.686  0.00  0.00     0     0.00      0     0.0  0.00   0.0   0.053   0.000   68.3    46   46.7   66.6   8.65  .0738    0.000   214    5    100.0   10 
12/16/18  1:30a   56.9   57.3   56.9    71   47.6   6.0     S   1.00  15.0    SE   55.9   56.2   55.2   52.6  29.671  0.00  0.00     0     0.00      0     0.0  0.00   0.0   0.056   0.000   68.2    46   46.6   66.5   8.65  .0737    0.000   213    5    100.0   10 
12/16/18  1:40a   58.1   58.1   56.9    71   48.7   8.0     S   1.33  19.0   SSW   56.2   57.4   55.5   53.1  29.681  0.00  0.00     0     0.00      0     0.0  0.00   0.0   0.048   0.000   68.2    46   46.6   66.5   8.65  .0738    0.000   213    5    100.0   10 
12/16/18  1:50a   59.4   59.4   58.1    68   48.8   8.0   SSW   1.33  20.0   SSE   57.8   58.6   57.0   54.6  29.686  0.00  0.00     0     0.00      0     0.0  0.00   0.0   0.039   0.000   68.2    46   46.6   66.5   8.65  .0738    0.000   212    5    100.0   10 
12/16/18  2:00a   59.6   59.7   59.2    67   48.6   9.0     S   1.50  19.0   SSE   57.2   58.8   56.4   54.1  29.686  0.00  0.00     0     0.00      0     0.0  0.00   0.0   0.038   0.000   68.2    46   46.6   66.5   8.65  .0738    0.002   211    5    100.0   10 
12/16/18  2:10a   59.6   59.7   59.6    67   48.6   8.0     S   1.33  23.0     S   58.0   58.8   57.2   54.8  29.688  0.00  0.00     0     0.00      0     0.0  0.00   0.0   0.038   0.000   68.1    46   46.5   66.4   8.65  .0738    0.000   212    5    100.0   10 
12/16/18  2:20a   59.3   59.7   59.3    68   48.7   7.0     S   1.17  19.0     S   58.4   58.5   57.6   55.1  29.685  0.00  0.00     0     0.00      0     0.0  0.00   0.0   0.040   0.000   68.1    46   46.5   66.4   8.65  .0738    0.000   214    5    100.0   10 
12/16/18  2:30a   58.5   59.3   58.5    70   48.7   6.0     S   1.00  15.0    SE   57.8   57.8   57.1   54.6  29.692  0.00  0.00     0     0.00      0     0.0  0.00   0.0   0.045   0.000   68.1    46   46.5   66.4   8.65  .0738    0.000   212    5    100.0   10 
12/16/18  2:40a   57.8   58.4   57.8    71   48.5   8.0     S   1.33  20.0   SSW   55.9   57.1   55.2   52.8  29.694  0.01  0.00     0     0.00      0     0.0  0.00   0.0   0.050   0.000   68.1    46   46.5   66.4   8.65  .0738    0.000   210    5    100.0   10 
12/16/18  2:50a   57.5   57.8   57.4    73   48.9   7.0     S   1.17  18.0   SSW   56.2   56.9   55.6   53.1  29.695  0.00  0.00     0     0.00      0     0.0  0.00   0.0   0.052   0.000   68.0    46   46.4   66.3   8.65  .0738    0.000   213    5    100.0   10 
12/16/18  3:00a   57.0   57.5   57.0    74   48.8   6.0     S   1.00  15.0   SSE   56.0   56.4   55.4   52.9  29.700  0.00  0.00     0     0.00      0     0.0  0.00   0.0   0.056   0.000   68.0    46   46.4   66.3   8.65  .0739    0.002   209    5    100.0   10 
12/16/18  3:10a   56.7   57.0   56.7    75   48.9   6.0     S   1.00  13.0     S   55.6   56.2   55.1   52.6  29.706  0.02  0.08     0     0.00      0     0.0  0.00   0.0   0.058   0.000   68.0    46   46.4   66.3   8.65  .0739    0.000   208    5    100.0   10 
12/16/18  3:20a   56.6   56.8   56.6    76   49.1   7.0   SSW   1.17  13.0   SSW   55.1   56.1   54.6   52.1  29.706  0.01  0.09     0     0.00      0     0.0  0.00   0.0   0.058   0.000   68.0    46   46.4   66.3   8.65  .0739    0.000   212    5    100.0   10 
12/16/18  3:30a   56.1   56.6   56.0    78   49.3  12.0   SSW   2.00  25.0     S   51.3   55.7   50.9   48.8  29.703  0.01  0.09     0     0.00      0     0.0  0.00   0.0   0.062   0.000   67.9    46   46.3   66.2   8.65  .0739    0.000   212    5    100.0   10 
12/16/18  3:40a   55.9   56.2   55.9    78   49.1  10.0   SSW   1.67  19.0   SSW   52.2   55.5   51.8   49.6  29.702  0.00  0.04     0     0.00      0     0.0  0.00   0.0   0.063   0.000   67.9    46   46.3   66.2   8.65  .0739    0.000   212    5    100.0   10 
12/16/18  3:50a   55.3   55.9   55.3    79   48.9  10.0   SSW   1.67  18.0   SSW   51.5   55.0   51.2   49.0  29.704  0.00  0.00     0     0.00      0     0.0  0.00   0.0   0.067   0.000   67.9    46   46.3   66.2   8.65  .0739    0.000   214    5    100.0   10 
12/16/18  4:00a   54.8   55.3   54.8    80   48.7   9.0   SSW   1.50  21.0     S   51.6   54.5   51.3   49.0  29.704  0.01  0.00     0     0.00      0     0.0  0.00   0.0   0.071   0.000   67.9    46   46.3   66.2   8.65  .0739    0.002   212    5    100.0   10 
12/16/18  4:10a   55.3   55.3   54.6    81   49.6  11.0   SSW   1.83  23.0     S   50.9   55.0   50.6   48.5  29.702  0.00  0.00     0     0.00      0     0.0  0.00   0.0   0.067   0.000   67.9    46   46.3   66.2   8.65  .0739    0.000   214    5    100.0   10 
12/16/18  4:20a   55.3   55.4   55.3    82   49.9  13.0   SSW   2.17  23.0   SSW   49.9   55.1   49.7   47.7  29.688  0.01  0.00     0     0.00      0     0.0  0.00   0.0   0.067   0.000   67.9    47   46.9   66.3   8.79  .0738    0.000   211    5    100.0   10 
12/16/18  4:30a   55.4   55.6   55.3    81   49.7  12.0   SSW   2.00  26.0   SSW   50.5   55.1   50.2   48.1  29.684  0.00  0.00     0     0.00      0     0.0  0.00   0.0   0.067   0.000   67.8    47   46.8   66.2   8.79  .0738    0.000   213    5    100.0   10 
12/16/18  4:40a   55.4   55.5   55.3    81   49.7   9.0   SSW   1.50  21.0     S   52.3   55.1   52.0   49.7  29.683  0.01  0.00     0     0.00      0     0.0  0.00   0.0   0.067   0.000   67.8    47   46.8   66.2   8.79  .0738    0.000   213    5    100.0   10 
12/16/18  4:50a   55.4   55.4   55.3    82   50.0   6.0     S   1.00  15.0   SSW   54.1   55.2   53.9   51.4  29.667  0.00  0.00     0     0.00      0     0.0  0.00   0.0   0.067   0.000   67.8    47   46.8   66.2   8.79  .0738    0.000   210    5    100.0   10 
12/16/18  5:00a   55.9   55.9   55.4    82   50.5   6.0   SSW   1.00  16.0    SE   54.7   55.7   54.5   52.0  29.661  0.00  0.00     0     0.00      0     0.0  0.00   0.0   0.063   0.000   67.7    47   46.7   66.1   8.80  .0738    0.001   213    5    100.0   10 
12/16/18  5:10a   56.1   56.1   55.9    81   50.3   6.0     S   1.00  14.0   SSW   54.9   55.8   54.6   52.1  29.653  0.00  0.00     0     0.00      0     0.0  0.00   0.0   0.062   0.000   67.7    47   46.7   66.1   8.80  .0738    0.000   213    5    100.0   10 
12/16/18  5:20a   56.2   56.2   56.0    80   50.1   5.0     S   0.83  16.0   SSE   55.5   55.9   55.2   52.7  29.643  0.00  0.00     0     0.00      0     0.0  0.00   0.0   0.061   0.000   67.7    47   46.7   66.1   8.80  .0737    0.000   210    5    100.0   10 
12/16/18  5:30a   56.3   56.3   56.0    80   50.2   6.0     S   1.00  17.0    SE   55.2   56.0   54.9   52.4  29.641  0.00  0.00     0     0.00      0     0.0  0.00   0.0   0.060   0.000   67.7    47   46.7   66.1   8.80  .0737    0.000   211    5    100.0   10 
12/16/18  5:40a   56.8   56.8   56.3    78   50.0   7.0     S   1.17  16.0   SSE   55.4   56.4   55.0   52.5  29.640  0.00  0.00     0     0.00      0     0.0  0.00   0.0   0.057   0.000   67.7    47   46.7   66.1   8.80  .0737    0.000   214    5    100.0   10 
12/16/18  5:50a   57.2   57.2   56.8    76   49.7   7.0   SSW   1.17  18.0     S   55.8   56.7   55.3   52.8  29.639  0.00  0.00     0     0.00      0     0.0  0.00   0.0   0.054   0.000   67.7    47   46.7   66.1   8.80  .0737    0.000   213    5    100.0   10 
12/16/18  6:00a   57.7   57.7   57.3    75   49.8   7.0   SSW   1.17  17.0     W   56.4   57.2   55.9   53.4  29.634  0.00  0.00     0     0.00      0     0.0  0.00   0.0   0.051   0.000   67.6    47   46.6   66.0   8.80  .0737    0.001   213    5    100.0   10 
12/16/18  6:10a   58.2   58.2   57.7    72   49.2   8.0     S   1.33  17.0   SSE   56.3   57.5   55.6   53.2  29.631  0.00  0.00     0     0.00      0     0.0  0.00   0.0   0.047   0.000   67.6    47   46.6   66.0   8.80  .0737    0.000   213    5    100.0   10 
12/16/18  6:20a   58.4   58.4   58.2    71   49.0   8.0     S   1.33  22.0   ENE   56.6   57.7   55.9   53.5  29.629  0.00  0.00     0     0.00      0     0.0  0.00   0.0   0.046   0.000   67.6    47   46.6   66.0   8.80  .0737    0.000   211    5    100.0   10 
12/16/18  6:30a   58.5   58.6   58.4    71   49.1   9.0     S   1.50  25.0   SSE   55.9   57.8   55.2   52.9  29.634  0.00  0.00     0     0.00      0     0.0  0.00   0.0   0.045   0.000   67.6    47   46.6   66.0   8.80  .0737    0.000   211    5    100.0   10 
12/16/18  6:40a   57.8   58.5   57.8    73   49.2   8.0   SSW   1.33  22.0     S   55.9   57.2   55.3   52.9  29.634  0.00  0.00     0     0.00      0     0.0  0.00   0.0   0.050   0.000   67.6    47   46.6   66.0   8.80  .0737    0.000   214    5    100.0   10 
12/16/18  6:50a   57.6   57.8   57.4    74   49.4   8.0   SSW   1.33  17.0   SSE   55.6   57.0   55.0   52.6  29.627  0.00  0.00     0     0.00      0     0.0  0.00   0.0   0.051   0.000   67.6    47   46.6   66.0   8.80  .0737    0.000   212    5    100.0   10 
12/16/18  7:00a   58.1   58.1   57.5    73   49.5   8.0     S   1.33  23.0   SSW   56.2   57.5   55.6   53.2  29.617  0.00  0.00     0     0.00      0     0.0  0.00   0.0   0.048   0.000   67.6    47   46.6   66.0   8.80  .0737    0.002   211    5    100.0   10 
12/16/18  7:10a   58.3   58.4   58.1    71   48.9   7.0     S   1.17  16.0     S   57.2   57.6   56.5   54.0  29.612  0.00  0.00     0     0.00      0     0.0  0.00   0.0   0.047   0.000   67.5    47   46.6   65.8   8.80  .0737    0.000   214    5    100.0   10 
12/16/18  7:20a   59.3   59.3   58.2    68   48.7   9.0     S   1.50  32.0     S   56.9   58.5   56.1   53.8  29.609  0.01  0.00     0     0.00      0     0.0  0.00   0.0   0.040   0.000   67.5    47   46.6   65.8   8.80  .0737    0.000   212    5    100.0   10 
12/16/18  7:30a   60.6   60.6   59.4    64   48.4  12.0     S   2.00  31.0     S   56.5   59.7   55.6   53.5  29.628  0.00  0.00     0     0.00      0     0.0  0.00   0.0   0.031   0.000   67.6    47   46.6   66.0   8.80  .0737    0.000   212    5    100.0   10 
Email: AdamSPAM@StormwatchersRetreat.com (To send me email remove the word 'SPAM' from my email address.)